sensor_id;sensor_type;location;lat;lon;timestamp;P1;durP1;ratioP1;P2;durP2;ratioP2
23608;SDS011;11982;50.810;4.442;2024-01-30T00:01:50;16.63;;;7.22;;
23608;SDS011;11982;50.810;4.442;2024-01-30T00:04:16;13.23;;;6.70;;
23608;SDS011;11982;50.810;4.442;2024-01-30T00:06:42;14.43;;;6.15;;
23608;SDS011;11982;50.810;4.442;2024-01-30T00:09:08;9.63;;;6.60;;
23608;SDS011;11982;50.810;4.442;2024-01-30T00:11:35;12.70;;;6.40;;
23608;SDS011;11982;50.810;4.442;2024-01-30T00:14:01;12.18;;;6.88;;
23608;SDS011;11982;50.810;4.442;2024-01-30T00:16:28;13.23;;;6.85;;
23608;SDS011;11982;50.810;4.442;2024-01-30T00:18:54;12.70;;;6.57;;
23608;SDS011;11982;50.810;4.442;2024-01-30T00:21:20;11.45;;;6.45;;
23608;SDS011;11982;50.810;4.442;2024-01-30T00:23:46;12.75;;;6.97;;
23608;SDS011;11982;50.810;4.442;2024-01-30T00:26:12;13.10;;;6.22;;
23608;SDS011;11982;50.810;4.442;2024-01-30T00:28:40;10.27;;;6.40;;
23608;SDS011;11982;50.810;4.442;2024-01-30T00:31:06;11.85;;;6.28;;
23608;SDS011;11982;50.810;4.442;2024-01-30T00:33:31;10.40;;;6.15;;
23608;SDS011;11982;50.810;4.442;2024-01-30T00:35:57;11.63;;;5.85;;
23608;SDS011;11982;50.810;4.442;2024-01-30T00:38:23;16.25;;;6.72;;
23608;SDS011;11982;50.810;4.442;2024-01-30T00:40:48;14.27;;;6.55;;
23608;SDS011;11982;50.810;4.442;2024-01-30T00:43:15;12.10;;;6.40;;
23608;SDS011;11982;50.810;4.442;2024-01-30T00:45:40;13.40;;;6.68;;
23608;SDS011;11982;50.810;4.442;2024-01-30T00:48:06;15.10;;;6.47;;
23608;SDS011;11982;50.810;4.442;2024-01-30T00:50:32;11.00;;;6.20;;
23608;SDS011;11982;50.810;4.442;2024-01-30T00:52:58;13.25;;;6.88;;
23608;SDS011;11982;50.810;4.442;2024-01-30T00:55:23;12.93;;;6.28;;
23608;SDS011;11982;50.810;4.442;2024-01-30T00:57:49;14.45;;;6.32;;
23608;SDS011;11982;50.810;4.442;2024-01-30T01:00:15;10.90;;;5.93;;
23608;SDS011;11982;50.810;4.442;2024-01-30T01:02:45;12.20;;;6.13;;
23608;SDS011;11982;50.810;4.442;2024-01-30T01:05:11;11.68;;;6.13;;
23608;SDS011;11982;50.810;4.442;2024-01-30T01:07:37;9.48;;;5.65;;
23608;SDS011;11982;50.810;4.442;2024-01-30T01:10:03;10.57;;;5.85;;
23608;SDS011;11982;50.810;4.442;2024-01-30T01:12:28;9.32;;;5.90;;
23608;SDS011;11982;50.810;4.442;2024-01-30T01:14:54;10.50;;;6.53;;
23608;SDS011;11982;50.810;4.442;2024-01-30T01:17:20;10.32;;;6.20;;
23608;SDS011;11982;50.810;4.442;2024-01-30T01:19:46;13.43;;;6.07;;
23608;SDS011;11982;50.810;4.442;2024-01-30T01:22:11;8.60;;;5.68;;
23608;SDS011;11982;50.810;4.442;2024-01-30T01:24:37;12.50;;;5.93;;
23608;SDS011;11982;50.810;4.442;2024-01-30T01:27:03;11.07;;;6.25;;
23608;SDS011;11982;50.810;4.442;2024-01-30T01:29:29;11.27;;;6.22;;
23608;SDS011;11982;50.810;4.442;2024-01-30T01:31:55;10.93;;;5.75;;
23608;SDS011;11982;50.810;4.442;2024-01-30T01:34:21;11.52;;;6.28;;
23608;SDS011;11982;50.810;4.442;2024-01-30T01:36:47;12.82;;;6.30;;
23608;SDS011;11982;50.810;4.442;2024-01-30T01:39:13;10.45;;;5.32;;
23608;SDS011;11982;50.810;4.442;2024-01-30T01:41:39;11.52;;;5.95;;
23608;SDS011;11982;50.810;4.442;2024-01-30T01:44:04;8.98;;;5.47;;
23608;SDS011;11982;50.810;4.442;2024-01-30T01:46:32;9.73;;;6.20;;
23608;SDS011;11982;50.810;4.442;2024-01-30T01:49:00;10.23;;;5.90;;
23608;SDS011;11982;50.810;4.442;2024-01-30T01:51:30;11.88;;;5.78;;
23608;SDS011;11982;50.810;4.442;2024-01-30T01:53:58;9.75;;;5.18;;
23608;SDS011;11982;50.810;4.442;2024-01-30T01:56:28;12.30;;;5.68;;
23608;SDS011;11982;50.810;4.442;2024-01-30T01:58:55;12.00;;;5.38;;
23608;SDS011;11982;50.810;4.442;2024-01-30T02:01:25;9.73;;;5.78;;
23608;SDS011;11982;50.810;4.442;2024-01-30T02:03:52;12.90;;;5.68;;
23608;SDS011;11982;50.810;4.442;2024-01-30T02:06:18;10.80;;;5.90;;
23608;SDS011;11982;50.810;4.442;2024-01-30T02:08:44;10.80;;;5.68;;
23608;SDS011;11982;50.810;4.442;2024-01-30T02:11:10;12.18;;;6.28;;
23608;SDS011;11982;50.810;4.442;2024-01-30T02:13:36;8.05;;;5.15;;
23608;SDS011;11982;50.810;4.442;2024-01-30T02:16:02;10.55;;;5.82;;
23608;SDS011;11982;50.810;4.442;2024-01-30T02:18:28;10.02;;;5.65;;
23608;SDS011;11982;50.810;4.442;2024-01-30T02:20:54;9.32;;;5.53;;
23608;SDS011;11982;50.810;4.442;2024-01-30T02:23:23;9.23;;;5.35;;
23608;SDS011;11982;50.810;4.442;2024-01-30T02:25:52;9.38;;;5.53;;
23608;SDS011;11982;50.810;4.442;2024-01-30T02:28:19;9.57;;;5.45;;
23608;SDS011;11982;50.810;4.442;2024-01-30T02:30:45;11.15;;;5.90;;
23608;SDS011;11982;50.810;4.442;2024-01-30T02:33:14;12.15;;;6.20;;
23608;SDS011;11982;50.810;4.442;2024-01-30T02:35:40;9.13;;;5.60;;
23608;SDS011;11982;50.810;4.442;2024-01-30T02:38:06;10.63;;;5.60;;
23608;SDS011;11982;50.810;4.442;2024-01-30T02:40:31;10.00;;;5.55;;
23608;SDS011;11982;50.810;4.442;2024-01-30T02:42:58;9.75;;;5.55;;
23608;SDS011;11982;50.810;4.442;2024-01-30T02:45:25;10.82;;;5.55;;
23608;SDS011;11982;50.810;4.442;2024-01-30T02:47:50;10.45;;;5.22;;
23608;SDS011;11982;50.810;4.442;2024-01-30T02:50:16;15.05;;;5.60;;
23608;SDS011;11982;50.810;4.442;2024-01-30T02:52:42;10.07;;;5.38;;
23608;SDS011;11982;50.810;4.442;2024-01-30T02:55:09;9.32;;;5.78;;
23608;SDS011;11982;50.810;4.442;2024-01-30T02:57:35;11.27;;;5.30;;
23608;SDS011;11982;50.810;4.442;2024-01-30T03:00:00;11.95;;;5.07;;
23608;SDS011;11982;50.810;4.442;2024-01-30T03:02:26;10.18;;;5.45;;
23608;SDS011;11982;50.810;4.442;2024-01-30T03:04:52;7.55;;;5.30;;
23608;SDS011;11982;50.810;4.442;2024-01-30T03:07:17;10.82;;;5.38;;
23608;SDS011;11982;50.810;4.442;2024-01-30T03:09:43;11.35;;;5.57;;
23608;SDS011;11982;50.810;4.442;2024-01-30T03:12:09;10.63;;;6.05;;
23608;SDS011;11982;50.810;4.442;2024-01-30T03:14:35;8.52;;;5.13;;
23608;SDS011;11982;50.810;4.442;2024-01-30T03:17:01;8.23;;;5.00;;
23608;SDS011;11982;50.810;4.442;2024-01-30T03:19:26;11.90;;;5.40;;
23608;SDS011;11982;50.810;4.442;2024-01-30T03:21:52;13.25;;;5.43;;
23608;SDS011;11982;50.810;4.442;2024-01-30T03:24:18;8.07;;;4.78;;
23608;SDS011;11982;50.810;4.442;2024-01-30T03:26:44;14.75;;;5.68;;
23608;SDS011;11982;50.810;4.442;2024-01-30T03:29:10;10.90;;;4.88;;
23608;SDS011;11982;50.810;4.442;2024-01-30T03:31:35;12.20;;;5.05;;
23608;SDS011;11982;50.810;4.442;2024-01-30T03:34:01;10.55;;;5.25;;
23608;SDS011;11982;50.810;4.442;2024-01-30T03:36:27;9.10;;;5.60;;
23608;SDS011;11982;50.810;4.442;2024-01-30T03:38:53;11.30;;;5.15;;
23608;SDS011;11982;50.810;4.442;2024-01-30T03:41:19;8.20;;;5.20;;
23608;SDS011;11982;50.810;4.442;2024-01-30T03:43:45;10.13;;;5.75;;
23608;SDS011;11982;50.810;4.442;2024-01-30T03:46:12;8.90;;;5.35;;
23608;SDS011;11982;50.810;4.442;2024-01-30T03:48:38;14.90;;;5.70;;
23608;SDS011;11982;50.810;4.442;2024-01-30T03:51:04;10.82;;;5.68;;
23608;SDS011;11982;50.810;4.442;2024-01-30T03:53:30;7.88;;;5.07;;
23608;SDS011;11982;50.810;4.442;2024-01-30T03:55:55;14.55;;;5.53;;
23608;SDS011;11982;50.810;4.442;2024-01-30T03:58:21;10.30;;;5.75;;
23608;SDS011;11982;50.810;4.442;2024-01-30T04:00:47;9.20;;;5.55;;
23608;SDS011;11982;50.810;4.442;2024-01-30T04:03:16;10.60;;;5.43;;
23608;SDS011;11982;50.810;4.442;2024-01-30T04:05:42;9.55;;;5.80;;
23608;SDS011;11982;50.810;4.442;2024-01-30T04:08:08;13.65;;;5.97;;
23608;SDS011;11982;50.810;4.442;2024-01-30T04:10:34;14.65;;;5.57;;
23608;SDS011;11982;50.810;4.442;2024-01-30T04:13:00;9.35;;;5.70;;
23608;SDS011;11982;50.810;4.442;2024-01-30T04:15:26;13.40;;;5.82;;
23608;SDS011;11982;50.810;4.442;2024-01-30T04:17:52;10.15;;;5.97;;
23608;SDS011;11982;50.810;4.442;2024-01-30T04:20:17;8.73;;;5.68;;
23608;SDS011;11982;50.810;4.442;2024-01-30T04:22:43;12.85;;;6.65;;
23608;SDS011;11982;50.810;4.442;2024-01-30T04:25:09;12.00;;;5.70;;
23608;SDS011;11982;50.810;4.442;2024-01-30T04:27:36;12.20;;;5.85;;
23608;SDS011;11982;50.810;4.442;2024-01-30T04:30:01;7.72;;;5.00;;
23608;SDS011;11982;50.810;4.442;2024-01-30T04:32:27;10.95;;;5.60;;
23608;SDS011;11982;50.810;4.442;2024-01-30T04:34:53;7.38;;;5.30;;
23608;SDS011;11982;50.810;4.442;2024-01-30T04:37:18;9.70;;;5.68;;
23608;SDS011;11982;50.810;4.442;2024-01-30T04:39:44;9.27;;;5.97;;
23608;SDS011;11982;50.810;4.442;2024-01-30T04:42:10;12.52;;;6.45;;
23608;SDS011;11982;50.810;4.442;2024-01-30T04:44:35;10.75;;;5.20;;
23608;SDS011;11982;50.810;4.442;2024-01-30T04:47:01;9.07;;;5.95;;
23608;SDS011;11982;50.810;4.442;2024-01-30T04:49:27;10.00;;;5.63;;
23608;SDS011;11982;50.810;4.442;2024-01-30T04:51:54;9.50;;;5.68;;
23608;SDS011;11982;50.810;4.442;2024-01-30T04:54:20;10.30;;;5.95;;
23608;SDS011;11982;50.810;4.442;2024-01-30T04:56:46;11.13;;;5.28;;
23608;SDS011;11982;50.810;4.442;2024-01-30T04:59:12;10.57;;;6.75;;
23608;SDS011;11982;50.810;4.442;2024-01-30T05:01:37;10.60;;;6.05;;
23608;SDS011;11982;50.810;4.442;2024-01-30T05:04:03;12.05;;;5.88;;
23608;SDS011;11982;50.810;4.442;2024-01-30T05:06:29;12.20;;;6.20;;
23608;SDS011;11982;50.810;4.442;2024-01-30T05:08:54;9.68;;;5.93;;
23608;SDS011;11982;50.810;4.442;2024-01-30T05:11:20;9.73;;;5.95;;
23608;SDS011;11982;50.810;4.442;2024-01-30T05:13:46;11.20;;;5.82;;
23608;SDS011;11982;50.810;4.442;2024-01-30T05:16:12;9.98;;;6.03;;
23608;SDS011;11982;50.810;4.442;2024-01-30T05:18:38;13.00;;;6.25;;
23608;SDS011;11982;50.810;4.442;2024-01-30T05:21:05;11.93;;;5.88;;
23608;SDS011;11982;50.810;4.442;2024-01-30T05:23:31;12.75;;;6.47;;
23608;SDS011;11982;50.810;4.442;2024-01-30T05:25:56;10.15;;;6.00;;
23608;SDS011;11982;50.810;4.442;2024-01-30T05:28:22;10.50;;;6.22;;
23608;SDS011;11982;50.810;4.442;2024-01-30T05:30:48;11.45;;;6.07;;
23608;SDS011;11982;50.810;4.442;2024-01-30T05:33:13;11.23;;;6.50;;
23608;SDS011;11982;50.810;4.442;2024-01-30T05:35:39;9.50;;;6.50;;
23608;SDS011;11982;50.810;4.442;2024-01-30T05:38:05;13.63;;;5.95;;
23608;SDS011;11982;50.810;4.442;2024-01-30T05:40:31;10.73;;;6.70;;
23608;SDS011;11982;50.810;4.442;2024-01-30T05:42:56;11.82;;;6.28;;
23608;SDS011;11982;50.810;4.442;2024-01-30T05:45:27;10.27;;;5.95;;
23608;SDS011;11982;50.810;4.442;2024-01-30T05:47:53;14.50;;;6.50;;
23608;SDS011;11982;50.810;4.442;2024-01-30T05:50:19;10.00;;;6.18;;
23608;SDS011;11982;50.810;4.442;2024-01-30T05:52:45;12.48;;;6.68;;
23608;SDS011;11982;50.810;4.442;2024-01-30T05:55:11;13.38;;;6.93;;
23608;SDS011;11982;50.810;4.442;2024-01-30T05:57:37;15.75;;;6.57;;
23608;SDS011;11982;50.810;4.442;2024-01-30T06:00:04;9.95;;;6.28;;
23608;SDS011;11982;50.810;4.442;2024-01-30T06:02:30;20.52;;;6.85;;
23608;SDS011;11982;50.810;4.442;2024-01-30T06:04:56;12.10;;;7.38;;
23608;SDS011;11982;50.810;4.442;2024-01-30T06:07:22;12.13;;;6.43;;
23608;SDS011;11982;50.810;4.442;2024-01-30T06:09:48;11.23;;;6.10;;
23608;SDS011;11982;50.810;4.442;2024-01-30T06:12:13;16.15;;;6.95;;
23608;SDS011;11982;50.810;4.442;2024-01-30T06:14:39;10.95;;;6.85;;
23608;SDS011;11982;50.810;4.442;2024-01-30T06:17:07;12.52;;;6.63;;
23608;SDS011;11982;50.810;4.442;2024-01-30T06:19:33;12.00;;;6.32;;
23608;SDS011;11982;50.810;4.442;2024-01-30T06:21:59;10.15;;;6.53;;
23608;SDS011;11982;50.810;4.442;2024-01-30T06:24:25;12.15;;;6.65;;
23608;SDS011;11982;50.810;4.442;2024-01-30T06:26:50;14.05;;;7.63;;
23608;SDS011;11982;50.810;4.442;2024-01-30T06:29:16;11.65;;;6.88;;
23608;SDS011;11982;50.810;4.442;2024-01-30T06:31:42;13.48;;;7.00;;
23608;SDS011;11982;50.810;4.442;2024-01-30T06:34:08;11.00;;;6.65;;
23608;SDS011;11982;50.810;4.442;2024-01-30T06:36:35;12.60;;;7.15;;
23608;SDS011;11982;50.810;4.442;2024-01-30T06:39:02;10.25;;;6.57;;
23608;SDS011;11982;50.810;4.442;2024-01-30T06:41:28;14.13;;;7.05;;
23608;SDS011;11982;50.810;4.442;2024-01-30T06:43:53;11.10;;;6.75;;
23608;SDS011;11982;50.810;4.442;2024-01-30T06:46:19;11.82;;;6.63;;
23608;SDS011;11982;50.810;4.442;2024-01-30T06:48:45;16.27;;;6.97;;
23608;SDS011;11982;50.810;4.442;2024-01-30T06:51:11;16.30;;;7.60;;
23608;SDS011;11982;50.810;4.442;2024-01-30T06:53:37;13.05;;;7.35;;
23608;SDS011;11982;50.810;4.442;2024-01-30T06:56:03;13.15;;;7.50;;
23608;SDS011;11982;50.810;4.442;2024-01-30T06:58:29;11.30;;;7.18;;
23608;SDS011;11982;50.810;4.442;2024-01-30T07:00:55;13.13;;;7.63;;
23608;SDS011;11982;50.810;4.442;2024-01-30T07:03:21;13.70;;;7.53;;
23608;SDS011;11982;50.810;4.442;2024-01-30T07:05:47;13.65;;;6.78;;
23608;SDS011;11982;50.810;4.442;2024-01-30T07:08:13;14.02;;;7.22;;
23608;SDS011;11982;50.810;4.442;2024-01-30T07:10:42;12.88;;;7.18;;
23608;SDS011;11982;50.810;4.442;2024-01-30T07:13:11;12.15;;;6.65;;
23608;SDS011;11982;50.810;4.442;2024-01-30T07:15:37;17.58;;;8.48;;
23608;SDS011;11982;50.810;4.442;2024-01-30T07:18:03;12.85;;;7.22;;
23608;SDS011;11982;50.810;4.442;2024-01-30T07:20:29;14.73;;;7.50;;
23608;SDS011;11982;50.810;4.442;2024-01-30T07:22:57;13.95;;;7.60;;
23608;SDS011;11982;50.810;4.442;2024-01-30T07:25:23;11.48;;;7.25;;
23608;SDS011;11982;50.810;4.442;2024-01-30T07:27:51;14.52;;;7.47;;
23608;SDS011;11982;50.810;4.442;2024-01-30T07:30:18;16.83;;;7.65;;
23608;SDS011;11982;50.810;4.442;2024-01-30T07:32:45;12.00;;;6.80;;
23608;SDS011;11982;50.810;4.442;2024-01-30T07:35:11;18.50;;;8.07;;
23608;SDS011;11982;50.810;4.442;2024-01-30T07:37:37;16.60;;;7.40;;
23608;SDS011;11982;50.810;4.442;2024-01-30T07:40:03;16.48;;;8.23;;
23608;SDS011;11982;50.810;4.442;2024-01-30T07:42:29;14.65;;;7.38;;
23608;SDS011;11982;50.810;4.442;2024-01-30T07:44:55;14.35;;;7.40;;
23608;SDS011;11982;50.810;4.442;2024-01-30T07:47:20;15.27;;;7.85;;
23608;SDS011;11982;50.810;4.442;2024-01-30T07:49:46;15.30;;;7.95;;
23608;SDS011;11982;50.810;4.442;2024-01-30T07:52:12;13.25;;;6.50;;
23608;SDS011;11982;50.810;4.442;2024-01-30T07:54:38;17.27;;;7.18;;
23608;SDS011;11982;50.810;4.442;2024-01-30T07:57:04;13.40;;;8.20;;
23608;SDS011;11982;50.810;4.442;2024-01-30T07:59:29;25.35;;;9.35;;
23608;SDS011;11982;50.810;4.442;2024-01-30T08:01:55;18.77;;;8.93;;
23608;SDS011;11982;50.810;4.442;2024-01-30T08:04:21;17.83;;;7.95;;
23608;SDS011;11982;50.810;4.442;2024-01-30T08:06:46;16.65;;;7.38;;
23608;SDS011;11982;50.810;4.442;2024-01-30T08:09:12;19.15;;;7.47;;
23608;SDS011;11982;50.810;4.442;2024-01-30T08:11:38;13.82;;;7.88;;
23608;SDS011;11982;50.810;4.442;2024-01-30T08:14:03;14.52;;;7.25;;
23608;SDS011;11982;50.810;4.442;2024-01-30T08:16:29;22.75;;;8.00;;
23608;SDS011;11982;50.810;4.442;2024-01-30T08:18:55;19.52;;;8.27;;
23608;SDS011;11982;50.810;4.442;2024-01-30T08:21:22;18.27;;;7.72;;
23608;SDS011;11982;50.810;4.442;2024-01-30T08:23:48;14.05;;;7.55;;
23608;SDS011;11982;50.810;4.442;2024-01-30T08:26:14;18.80;;;8.13;;
23608;SDS011;11982;50.810;4.442;2024-01-30T08:28:39;18.95;;;8.48;;
23608;SDS011;11982;50.810;4.442;2024-01-30T08:31:05;16.13;;;8.77;;
23608;SDS011;11982;50.810;4.442;2024-01-30T08:33:31;17.90;;;8.57;;
23608;SDS011;11982;50.810;4.442;2024-01-30T08:35:56;15.77;;;8.30;;
23608;SDS011;11982;50.810;4.442;2024-01-30T08:38:22;21.20;;;8.75;;
23608;SDS011;11982;50.810;4.442;2024-01-30T08:40:48;15.95;;;8.48;;
23608;SDS011;11982;50.810;4.442;2024-01-30T08:43:14;16.42;;;8.70;;
23608;SDS011;11982;50.810;4.442;2024-01-30T08:45:40;16.48;;;8.30;;
23608;SDS011;11982;50.810;4.442;2024-01-30T08:48:06;18.35;;;8.50;;
23608;SDS011;11982;50.810;4.442;2024-01-30T08:50:33;20.42;;;8.38;;
23608;SDS011;11982;50.810;4.442;2024-01-30T08:52:58;14.38;;;8.23;;
23608;SDS011;11982;50.810;4.442;2024-01-30T08:55:24;21.73;;;8.35;;
23608;SDS011;11982;50.810;4.442;2024-01-30T08:57:50;16.85;;;8.48;;
23608;SDS011;11982;50.810;4.442;2024-01-30T09:00:17;14.32;;;8.07;;
23608;SDS011;11982;50.810;4.442;2024-01-30T09:02:43;21.10;;;8.75;;
23608;SDS011;11982;50.810;4.442;2024-01-30T09:05:08;17.20;;;8.45;;
23608;SDS011;11982;50.810;4.442;2024-01-30T09:07:34;18.90;;;8.25;;
23608;SDS011;11982;50.810;4.442;2024-01-30T09:10:00;19.00;;;8.75;;
23608;SDS011;11982;50.810;4.442;2024-01-30T09:12:26;27.65;;;8.65;;
23608;SDS011;11982;50.810;4.442;2024-01-30T09:14:51;15.75;;;8.25;;
23608;SDS011;11982;50.810;4.442;2024-01-30T09:17:17;16.92;;;8.40;;
23608;SDS011;11982;50.810;4.442;2024-01-30T09:19:43;17.00;;;8.80;;
23608;SDS011;11982;50.810;4.442;2024-01-30T09:22:08;22.02;;;8.95;;
23608;SDS011;11982;50.810;4.442;2024-01-30T09:24:34;17.77;;;8.70;;
23608;SDS011;11982;50.810;4.442;2024-01-30T09:27:00;19.35;;;9.38;;
23608;SDS011;11982;50.810;4.442;2024-01-30T09:29:25;20.20;;;9.20;;
23608;SDS011;11982;50.810;4.442;2024-01-30T09:31:51;17.98;;;9.25;;
23608;SDS011;11982;50.810;4.442;2024-01-30T09:34:17;20.63;;;8.93;;
23608;SDS011;11982;50.810;4.442;2024-01-30T09:36:43;20.25;;;10.10;;
23608;SDS011;11982;50.810;4.442;2024-01-30T09:39:08;25.05;;;9.57;;
23608;SDS011;11982;50.810;4.442;2024-01-30T09:41:35;20.80;;;10.27;;
23608;SDS011;11982;50.810;4.442;2024-01-30T09:44:09;19.40;;;9.43;;
23608;SDS011;11982;50.810;4.442;2024-01-30T09:46:37;24.15;;;9.93;;
23608;SDS011;11982;50.810;4.442;2024-01-30T09:49:04;16.15;;;9.45;;
23608;SDS011;11982;50.810;4.442;2024-01-30T09:51:31;23.65;;;10.25;;
23608;SDS011;11982;50.810;4.442;2024-01-30T09:53:57;24.00;;;10.35;;
23608;SDS011;11982;50.810;4.442;2024-01-30T09:56:22;25.20;;;11.40;;
23608;SDS011;11982;50.810;4.442;2024-01-30T09:58:48;26.08;;;10.77;;
23608;SDS011;11982;50.810;4.442;2024-01-30T10:01:14;24.33;;;10.73;;
23608;SDS011;11982;50.810;4.442;2024-01-30T10:03:43;26.50;;;12.13;;
23608;SDS011;11982;50.810;4.442;2024-01-30T10:06:09;25.08;;;11.63;;
23608;SDS011;11982;50.810;4.442;2024-01-30T10:08:35;27.17;;;12.20;;
23608;SDS011;11982;50.810;4.442;2024-01-30T10:11:01;22.02;;;10.88;;
23608;SDS011;11982;50.810;4.442;2024-01-30T10:13:28;22.48;;;11.25;;
23608;SDS011;11982;50.810;4.442;2024-01-30T10:15:54;25.65;;;11.07;;
23608;SDS011;11982;50.810;4.442;2024-01-30T10:18:20;26.17;;;11.65;;
23608;SDS011;11982;50.810;4.442;2024-01-30T10:20:48;28.55;;;12.70;;
23608;SDS011;11982;50.810;4.442;2024-01-30T10:23:13;29.80;;;12.02;;
23608;SDS011;11982;50.810;4.442;2024-01-30T10:25:39;22.15;;;11.95;;
23608;SDS011;11982;50.810;4.442;2024-01-30T10:28:05;25.50;;;11.63;;
23608;SDS011;11982;50.810;4.442;2024-01-30T10:30:31;30.80;;;12.63;;
23608;SDS011;11982;50.810;4.442;2024-01-30T10:32:57;21.27;;;10.98;;
23608;SDS011;11982;50.810;4.442;2024-01-30T10:35:22;23.95;;;11.48;;
23608;SDS011;11982;50.810;4.442;2024-01-30T10:37:48;26.83;;;11.95;;
23608;SDS011;11982;50.810;4.442;2024-01-30T10:40:14;18.50;;;10.57;;
23608;SDS011;11982;50.810;4.442;2024-01-30T10:42:43;23.92;;;10.93;;
23608;SDS011;11982;50.810;4.442;2024-01-30T10:45:13;23.25;;;11.57;;
23608;SDS011;11982;50.810;4.442;2024-01-30T10:47:44;32.75;;;11.98;;
23608;SDS011;11982;50.810;4.442;2024-01-30T10:50:14;20.00;;;10.68;;
23608;SDS011;11982;50.810;4.442;2024-01-30T10:52:41;26.92;;;9.50;;
23608;SDS011;11982;50.810;4.442;2024-01-30T10:55:07;25.73;;;10.23;;
23608;SDS011;11982;50.810;4.442;2024-01-30T10:57:36;20.30;;;9.70;;
23608;SDS011;11982;50.810;4.442;2024-01-30T11:00:14;22.40;;;9.25;;
23608;SDS011;11982;50.810;4.442;2024-01-30T11:05:10;23.92;;;9.43;;
23608;SDS011;11982;50.810;4.442;2024-01-30T11:07:38;21.15;;;8.95;;
23608;SDS011;11982;50.810;4.442;2024-01-30T11:10:05;20.60;;;9.48;;
23608;SDS011;11982;50.810;4.442;2024-01-30T11:12:37;15.38;;;8.40;;
23608;SDS011;11982;50.810;4.442;2024-01-30T11:15:09;21.50;;;8.43;;
23608;SDS011;11982;50.810;4.442;2024-01-30T11:20:09;17.38;;;6.68;;
23608;SDS011;11982;50.810;4.442;2024-01-30T11:22:46;14.57;;;4.97;;
23608;SDS011;11982;50.810;4.442;2024-01-30T11:25:15;16.42;;;5.57;;
23608;SDS011;11982;50.810;4.442;2024-01-30T11:27:43;8.32;;;3.50;;
23608;SDS011;11982;50.810;4.442;2024-01-30T11:30:10;10.15;;;3.33;;
23608;SDS011;11982;50.810;4.442;2024-01-30T11:32:36;6.72;;;3.35;;
23608;SDS011;11982;50.810;4.442;2024-01-30T11:35:03;11.98;;;3.10;;
23608;SDS011;11982;50.810;4.442;2024-01-30T11:37:31;8.30;;;2.60;;
23608;SDS011;11982;50.810;4.442;2024-01-30T11:39:57;11.90;;;3.65;;
23608;SDS011;11982;50.810;4.442;2024-01-30T11:42:24;9.52;;;2.53;;
23608;SDS011;11982;50.810;4.442;2024-01-30T11:44:50;6.15;;;2.67;;
23608;SDS011;11982;50.810;4.442;2024-01-30T11:47:16;7.57;;;2.17;;
23608;SDS011;11982;50.810;4.442;2024-01-30T11:49:42;4.22;;;1.20;;
23608;SDS011;11982;50.810;4.442;2024-01-30T11:52:08;5.40;;;1.58;;
23608;SDS011;11982;50.810;4.442;2024-01-30T11:54:34;5.47;;;1.33;;
23608;SDS011;11982;50.810;4.442;2024-01-30T11:57:00;2.40;;;1.00;;
23608;SDS011;11982;50.810;4.442;2024-01-30T11:59:26;2.38;;;0.90;;
23608;SDS011;11982;50.810;4.442;2024-01-30T12:01:52;5.47;;;1.08;;
23608;SDS011;11982;50.810;4.442;2024-01-30T12:04:17;4.68;;;1.08;;
23608;SDS011;11982;50.810;4.442;2024-01-30T12:06:43;5.97;;;1.08;;
23608;SDS011;11982;50.810;4.442;2024-01-30T12:09:09;4.97;;;1.25;;
23608;SDS011;11982;50.810;4.442;2024-01-30T12:11:44;3.78;;;0.70;;
23608;SDS011;11982;50.810;4.442;2024-01-30T12:14:13;2.85;;;0.85;;
23608;SDS011;11982;50.810;4.442;2024-01-30T12:16:39;3.78;;;0.95;;
23608;SDS011;11982;50.810;4.442;2024-01-30T12:19:07;5.32;;;1.10;;
23608;SDS011;11982;50.810;4.442;2024-01-30T12:21:33;0.85;;;0.50;;
23608;SDS011;11982;50.810;4.442;2024-01-30T12:24:00;3.33;;;0.93;;
23608;SDS011;11982;50.810;4.442;2024-01-30T12:26:26;6.45;;;1.00;;
23608;SDS011;11982;50.810;4.442;2024-01-30T12:28:55;5.75;;;0.98;;
23608;SDS011;11982;50.810;4.442;2024-01-30T12:31:26;4.43;;;0.77;;
23608;SDS011;11982;50.810;4.442;2024-01-30T12:33:59;2.28;;;0.60;;
23608;SDS011;11982;50.810;4.442;2024-01-30T12:36:25;4.40;;;0.75;;
23608;SDS011;11982;50.810;4.442;2024-01-30T12:38:51;6.75;;;0.68;;
23608;SDS011;11982;50.810;4.442;2024-01-30T12:41:17;3.63;;;0.82;;
23608;SDS011;11982;50.810;4.442;2024-01-30T12:43:43;2.17;;;0.63;;
23608;SDS011;11982;50.810;4.442;2024-01-30T12:46:09;4.63;;;0.60;;
23608;SDS011;11982;50.810;4.442;2024-01-30T12:48:35;5.18;;;0.80;;
23608;SDS011;11982;50.810;4.442;2024-01-30T12:51:01;7.57;;;0.70;;
23608;SDS011;11982;50.810;4.442;2024-01-30T12:53:26;2.03;;;0.60;;
23608;SDS011;11982;50.810;4.442;2024-01-30T12:55:53;1.73;;;0.70;;
23608;SDS011;11982;50.810;4.442;2024-01-30T12:58:19;2.30;;;0.50;;
23608;SDS011;11982;50.810;4.442;2024-01-30T13:00:45;0.98;;;0.60;;
23608;SDS011;11982;50.810;4.442;2024-01-30T13:03:12;3.95;;;0.90;;
23608;SDS011;11982;50.810;4.442;2024-01-30T13:05:38;3.63;;;0.80;;
23608;SDS011;11982;50.810;4.442;2024-01-30T13:08:04;3.85;;;0.80;;
23608;SDS011;11982;50.810;4.442;2024-01-30T13:10:30;5.35;;;0.90;;
23608;SDS011;11982;50.810;4.442;2024-01-30T13:12:55;4.57;;;1.10;;
23608;SDS011;11982;50.810;4.442;2024-01-30T13:15:21;3.22;;;0.80;;
23608;SDS011;11982;50.810;4.442;2024-01-30T13:17:47;4.78;;;1.10;;
23608;SDS011;11982;50.810;4.442;2024-01-30T13:20:14;3.08;;;0.82;;
23608;SDS011;11982;50.810;4.442;2024-01-30T13:22:44;7.55;;;1.58;;
23608;SDS011;11982;50.810;4.442;2024-01-30T13:25:10;3.15;;;0.68;;
23608;SDS011;11982;50.810;4.442;2024-01-30T13:27:36;3.75;;;0.93;;
23608;SDS011;11982;50.810;4.442;2024-01-30T13:30:02;9.70;;;0.88;;
23608;SDS011;11982;50.810;4.442;2024-01-30T13:32:29;4.07;;;0.90;;
23608;SDS011;11982;50.810;4.442;2024-01-30T13:34:54;4.97;;;1.35;;
23608;SDS011;11982;50.810;4.442;2024-01-30T13:37:20;8.73;;;1.42;;
23608;SDS011;11982;50.810;4.442;2024-01-30T13:39:46;5.22;;;0.98;;
23608;SDS011;11982;50.810;4.442;2024-01-30T13:42:12;5.18;;;0.68;;
23608;SDS011;11982;50.810;4.442;2024-01-30T13:44:38;4.30;;;0.80;;
23608;SDS011;11982;50.810;4.442;2024-01-30T13:47:04;5.07;;;1.05;;
23608;SDS011;11982;50.810;4.442;2024-01-30T13:49:30;4.15;;;0.65;;
23608;SDS011;11982;50.810;4.442;2024-01-30T13:51:55;4.90;;;1.15;;
23608;SDS011;11982;50.810;4.442;2024-01-30T13:54:21;8.73;;;1.10;;
23608;SDS011;11982;50.810;4.442;2024-01-30T13:56:47;5.15;;;1.70;;
23608;SDS011;11982;50.810;4.442;2024-01-30T13:59:12;8.75;;;1.33;;
23608;SDS011;11982;50.810;4.442;2024-01-30T14:01:38;7.03;;;1.23;;
23608;SDS011;11982;50.810;4.442;2024-01-30T14:04:04;10.15;;;1.33;;
23608;SDS011;11982;50.810;4.442;2024-01-30T14:06:29;9.95;;;1.27;;
23608;SDS011;11982;50.810;4.442;2024-01-30T14:08:55;4.45;;;0.75;;
23608;SDS011;11982;50.810;4.442;2024-01-30T14:11:21;2.92;;;1.00;;
23608;SDS011;11982;50.810;4.442;2024-01-30T14:13:46;5.95;;;1.00;;
23608;SDS011;11982;50.810;4.442;2024-01-30T14:16:12;5.43;;;0.95;;
23608;SDS011;11982;50.810;4.442;2024-01-30T14:18:38;4.07;;;0.80;;
23608;SDS011;11982;50.810;4.442;2024-01-30T14:21:03;5.38;;;1.10;;
23608;SDS011;11982;50.810;4.442;2024-01-30T14:23:29;4.68;;;1.33;;
23608;SDS011;11982;50.810;4.442;2024-01-30T14:25:55;7.82;;;1.40;;
23608;SDS011;11982;50.810;4.442;2024-01-30T14:28:20;1.80;;;0.70;;
23608;SDS011;11982;50.810;4.442;2024-01-30T14:30:46;5.95;;;0.93;;
23608;SDS011;11982;50.810;4.442;2024-01-30T14:33:12;7.00;;;0.93;;
23608;SDS011;11982;50.810;4.442;2024-01-30T14:35:38;6.13;;;1.15;;
23608;SDS011;11982;50.810;4.442;2024-01-30T14:38:04;5.93;;;0.82;;